Time;durP1;ratioP1;P1;durP2;ratioP2;P2;SDS_P1;SDS_P2;PMS_P1;PMS_P2;Temp;Humidity;BMP_temperature;BMP_pressure;BME280_temperature;BME280_humidity;BME280_pressure;Samples;Min_cycle;Max_cycle;Signal;HPM_P1;HPM_P2
2023/03/17 00:01:04;;;;;;;195.95;83.72;;;-0.50;99.90;;;;;;5097480;28;20076;-74
2023/03/17 00:03:35;;;;;;;194.90;83.47;;;-0.60;99.90;;;;;;5097876;28;20406;-75
2023/03/17 00:06:03;;;;;;;201.80;85.05;;;-0.60;99.90;;;;;;5097921;28;20225;-74
2023/03/17 00:08:32;;;;;;;224.95;100.13;;;-0.60;99.90;;;;;;5097990;28;20023;-74
2023/03/17 00:10:58;;;;;;;236.65;103.55;;;-0.70;99.90;;;;;;5097799;28;20472;-75
2023/03/17 00:13:25;;;;;;;216.27;93.32;;;-0.70;99.90;;;;;;5097697;28;20028;-75
2023/03/17 00:15:59;;;;;;;178.35;79.63;;;-0.50;99.90;;;;;;5097677;28;20458;-75
2023/03/17 00:18:26;;;;;;;158.45;69.18;;;-0.40;99.90;;;;;;5097491;28;20489;-75
2023/03/17 00:20:52;;;;;;;170.93;76.35;;;-0.30;99.90;;;;;;5097689;28;20059;-75
2023/03/17 00:23:21;;;;;;;171.10;75.57;;;-0.40;99.90;;;;;;5097562;28;20024;-75
2023/03/17 00:25:48;;;;;;;166.75;75.55;;;-0.50;99.90;;;;;;5097496;28;20316;-74
2023/03/17 00:28:26;;;;;;;183.05;83.40;;;-0.60;99.90;;;;;;5097481;28;20432;-75
2023/03/17 00:31:05;;;;;;;228.43;99.65;;;-0.70;99.90;;;;;;5079034;28;20119;-75
2023/03/17 00:33:33;;;;;;;240.20;101.05;;;-0.80;99.90;;;;;;5097512;28;20069;-75
2023/03/17 00:36:00;;;;;;;327.65;126.78;;;-0.80;99.90;;;;;;5077528;28;20067;-75
2023/03/17 00:38:26;;;;;;;165.98;73.07;;;-0.60;99.90;;;;;;5077000;28;20056;-75
2023/03/17 00:40:53;;;;;;;149.02;67.68;;;-0.60;99.90;;;;;;5058989;28;20032;-75
2023/03/17 00:43:21;;;;;;;153.23;67.60;;;-0.60;99.90;;;;;;5076741;28;20035;-75
2023/03/17 00:45:47;;;;;;;141.50;62.53;;;-0.70;99.90;;;;;;5076945;28;20029;-75
2023/03/17 00:48:18;;;;;;;151.60;67.53;;;-0.60;99.90;;;;;;5076944;28;20359;-74
2023/03/17 00:50:46;;;;;;;151.77;68.15;;;-0.70;99.90;;;;;;5058843;28;20047;-75
2023/03/17 00:53:17;;;;;;;167.75;75.38;;;-0.80;99.90;;;;;;5076859;28;20052;-74
2023/03/17 00:55:45;;;;;;;163.55;72.22;;;-0.90;99.90;;;;;;5076609;28;20040;-74
2023/03/17 00:58:21;;;;;;;176.77;78.32;;;-0.90;99.90;;;;;;5076682;28;20378;-75
2023/03/17 01:00:49;;;;;;;190.88;83.95;;;-1.00;99.90;;;;;;5076594;28;20036;-75
2023/03/17 01:03:15;;;;;;;194.02;83.05;;;-1.10;99.90;;;;;;5058551;28;20032;-75
2023/03/17 01:05:41;;;;;;;207.63;89.55;;;-1.00;99.90;;;;;;5076599;28;20035;-74
2023/03/17 01:08:09;;;;;;;198.25;86.30;;;-0.80;99.90;;;;;;5058324;28;20029;-75
2023/03/17 01:10:36;;;;;;;199.23;83.90;;;-0.90;99.90;;;;;;5076061;28;20052;-74
2023/03/17 01:13:03;;;;;;;188.13;83.38;;;-1.00;99.90;;;;;;5076288;28;20032;-74
2023/03/17 01:15:30;;;;;;;188.05;83.72;;;-1.10;99.90;;;;;;5076494;28;20032;-75
2023/03/17 01:17:58;;;;;;;194.95;85.43;;;-1.20;99.90;;;;;;5076195;28;20103;-74
2023/03/17 01:20:28;;;;;;;198.20;85.20;;;-1.20;99.90;;;;;;5076288;28;20371;-74
2023/03/17 01:22:54;;;;;;;202.18;91.28;;;-1.20;99.90;;;;;;5076095;28;20033;-75
2023/03/17 01:25:20;;;;;;;208.13;91.93;;;-1.30;99.90;;;;;;5076277;28;20033;-75
2023/03/17 01:27:47;;;;;;;198.75;87.22;;;-1.40;99.90;;;;;;5058102;28;20067;-75
2023/03/17 01:30:38;;;;;;;193.93;84.65;;;-1.40;99.90;;;;;;5057871;28;20126;-74
2023/03/17 01:33:08;;;;;;;;;;;-1.30;99.90;;;;;;5058494;28;20035;-74
2023/03/17 01:35:37;;;;;;;205.80;87.07;;;-1.30;99.90;;;;;;5091952;28;19920;-74
2023/03/17 01:38:03;;;;;;;216.98;89.47;;;-1.40;99.90;;;;;;5096173;28;20035;-74
2023/03/17 01:40:33;;;;;;;241.70;102.45;;;-1.40;99.90;;;;;;5078008;28;20042;-74
2023/03/17 01:43:07;;;;;;;247.63;102.15;;;-1.50;99.90;;;;;;5096001;28;20055;-75
2023/03/17 01:46:13;;;;;;;237.30;99.88;;;-1.50;99.90;;;;;;5096078;28;20028;-75
2023/03/17 01:48:44;;;;;;;244.13;105.47;;;-1.40;99.90;;;;;;5096017;28;20055;-74
2023/03/17 01:51:45;;;;;;;246.20;104.95;;;-1.30;99.90;;;;;;5095817;28;20025;-74
2023/03/17 01:54:15;;;;;;;;;;;-1.40;99.90;;;;;;5093030;28;20063;-74
2023/03/17 01:56:46;;;;;;;245.50;99.72;;;-1.50;99.90;;;;;;5095851;28;20428;-74
2023/03/17 01:59:18;;;;;;;222.90;94.80;;;-1.60;99.90;;;;;;5077525;28;20036;-74
2023/03/17 02:01:48;;;;;;;233.85;96.32;;;-1.70;99.90;;;;;;5095686;28;20491;-74
2023/03/17 02:04:17;;;;;;;237.15;95.75;;;-1.60;99.90;;;;;;5077603;28;20028;-74
2023/03/17 02:06:43;;;;;;;237.20;96.13;;;-1.60;99.90;;;;;;5095441;28;20093;-74
2023/03/17 02:09:09;;;;;;;240.30;99.55;;;-1.50;99.90;;;;;;5095413;28;20055;-74
2023/03/17 02:11:37;;;;;;;232.82;102.43;;;-1.60;99.90;;;;;;5095510;28;20101;-74
2023/03/17 02:14:02;;;;;;;234.45;99.63;;;-1.70;99.90;;;;;;5110975;28;20034;-74
2023/03/17 02:16:30;;;;;;;212.13;92.47;;;-1.70;99.90;;;;;;5077193;28;20401;-74
2023/03/17 02:18:56;;;;;;;203.23;90.13;;;-1.60;99.90;;;;;;5095141;28;20051;-74
2023/03/17 02:21:40;;;;;;;211.88;89.25;;;-1.40;99.90;;;;;;5095172;28;20032;-74
2023/03/17 02:24:16;;;;;;;213.07;91.63;;;-1.30;99.90;;;;;;5076760;28;20039;-74
2023/03/17 02:26:44;;;;;;;202.73;90.13;;;-1.50;99.90;;;;;;5076986;28;20041;-74
2023/03/17 02:29:11;;;;;;;209.60;91.15;;;-1.50;99.90;;;;;;5095294;28;20042;-74
2023/03/17 02:31:40;;;;;;;212.85;92.10;;;-1.50;99.90;;;;;;5094814;28;20039;-74
2023/03/17 02:34:06;;;;;;;207.38;89.32;;;-1.60;99.90;;;;;;5090862;28;20494;-73
2023/03/17 02:36:32;;;;;;;214.95;92.43;;;-1.70;99.90;;;;;;5074784;28;20047;-74
2023/03/17 02:38:58;;;;;;;169.63;77.70;;;-1.70;99.90;;;;;;5074680;28;20017;-74
2023/03/17 02:41:29;;;;;;;166.68;74.65;;;-1.70;99.90;;;;;;5056751;28;20040;-74
2023/03/17 02:43:55;;;;;;;170.98;77.93;;;-1.90;99.90;;;;;;5056503;28;20086;-74
2023/03/17 02:46:22;;;;;;;183.63;81.13;;;-1.80;99.90;;;;;;5074735;28;20028;-73
2023/03/17 02:48:49;;;;;;;186.35;81.35;;;-1.80;99.90;;;;;;5056546;28;20085;-73
2023/03/17 02:51:15;;;;;;;192.13;84.15;;;-1.80;99.90;;;;;;5074560;28;20036;-73
2023/03/17 02:53:41;;;;;;;187.35;83.72;;;-1.60;99.90;;;;;;5074639;28;20032;-73
2023/03/17 02:56:07;;;;;;;183.55;82.22;;;-1.50;99.90;;;;;;5074430;28;20482;-73
2023/03/17 02:58:33;;;;;;;177.98;80.40;;;-1.50;99.90;;;;;;5074531;28;20485;-74
2023/03/17 03:00:59;;;;;;;195.15;83.90;;;-1.60;99.90;;;;;;5074671;28;20432;-73
2023/03/17 03:03:25;;;;;;;164.00;75.63;;;-1.80;99.90;;;;;;5074503;28;20029;-73
2023/03/17 03:05:51;;;;;;;188.23;84.72;;;-1.80;99.90;;;;;;5074376;28;20049;-73
2023/03/17 03:08:17;;;;;;;191.35;84.10;;;-1.80;99.90;;;;;;5074345;28;20561;-73
2023/03/17 03:10:43;;;;;;;180.48;79.20;;;-1.80;99.90;;;;;;5074420;28;20032;-73
2023/03/17 03:13:10;;;;;;;175.10;79.55;;;-1.80;99.90;;;;;;5074349;28;20063;-73
2023/03/17 03:15:37;;;;;;;179.50;81.85;;;-1.80;99.90;;;;;;5074322;28;20036;-73
2023/03/17 03:18:03;;;;;;;177.98;77.72;;;-2.10;99.90;;;;;;5074370;28;20033;-73
2023/03/17 03:20:28;;;;;;;172.57;78.80;;;-2.30;99.90;;;;;;5074269;28;20275;-73
2023/03/17 03:22:55;;;;;;;181.68;81.90;;;-2.20;99.90;;;;;;5074681;28;20029;-73
2023/03/17 03:25:21;;;;;;;180.60;77.93;;;-2.20;99.90;;;;;;5074259;28;20107;-73
2023/03/17 03:27:46;;;;;;;188.45;82.05;;;-2.20;99.90;;;;;;5074077;28;20166;-73
2023/03/17 03:30:13;;;;;;;168.18;76.43;;;-2.20;99.90;;;;;;5074173;28;20060;-73
2023/03/17 03:32:39;;;;;;;183.38;80.20;;;-2.20;99.90;;;;;;5074187;28;20466;-73
2023/03/17 03:35:07;;;;;;;190.68;84.85;;;-2.30;99.90;;;;;;5089319;28;20051;-73
2023/03/17 03:37:33;;;;;;;184.32;80.18;;;-2.30;99.90;;;;;;5098438;28;20024;-73
2023/03/17 03:39:59;;;;;;;174.88;79.20;;;-2.30;99.90;;;;;;5098432;28;20098;-73
2023/03/17 03:42:25;;;;;;;162.57;75.65;;;-2.20;99.90;;;;;;5098181;28;20462;-73
2023/03/17 03:44:51;;;;;;;164.98;76.60;;;-2.30;99.90;;;;;;5098210;28;20035;-73
2023/03/17 03:47:17;;;;;;;174.82;79.63;;;-2.30;99.90;;;;;;5098422;28;20034;-73
2023/03/17 03:49:43;;;;;;;189.90;82.80;;;-2.30;99.90;;;;;;5098232;28;20028;-73
2023/03/17 03:52:09;;;;;;;198.68;87.97;;;-2.30;99.90;;;;;;5098071;28;20473;-73
2023/03/17 03:54:35;;;;;;;188.65;84.47;;;-2.40;99.90;;;;;;5098017;28;20036;-73
2023/03/17 03:57:01;;;;;;;188.32;82.22;;;-2.50;99.90;;;;;;5098017;28;20029;-73
2023/03/17 03:59:28;;;;;;;172.63;77.95;;;-2.50;99.90;;;;;;5098127;28;20103;-73
2023/03/17 04:01:54;;;;;;;176.93;77.80;;;-2.50;99.90;;;;;;5098066;28;20061;-73
2023/03/17 04:04:20;;;;;;;171.40;75.75;;;-2.40;99.90;;;;;;5097911;28;20051;-73
2023/03/17 04:06:46;;;;;;;172.15;76.28;;;-2.20;99.90;;;;;;5097938;28;20036;-73
2023/03/17 04:09:12;;;;;;;195.88;85.70;;;-2.20;99.90;;;;;;5097887;28;20036;-73
2023/03/17 04:11:38;;;;;;;181.70;82.05;;;-2.20;99.90;;;;;;5097537;28;20038;-73
2023/03/17 04:14:05;;;;;;;162.73;75.72;;;-2.10;99.90;;;;;;5097746;28;20032;-73
2023/03/17 04:16:31;;;;;;;164.60;74.47;;;-2.00;99.90;;;;;;5097771;28;20032;-73
2023/03/17 04:18:57;;;;;;;160.88;72.38;;;-1.80;99.90;;;;;;5097588;28;20020;-73
2023/03/17 04:21:23;;;;;;;152.25;69.10;;;-1.80;99.90;;;;;;5097586;28;20081;-73
2023/03/17 04:23:49;;;;;;;144.73;66.57;;;-2.00;99.90;;;;;;5097603;28;20032;-73
2023/03/17 04:26:17;;;;;;;135.02;60.88;;;-2.00;99.90;;;;;;5097560;28;20052;-73
2023/03/17 04:28:43;;;;;;;123.00;57.13;;;-1.90;99.90;;;;;;5097530;28;20053;-73
2023/03/17 04:31:12;;;;;;;110.80;52.38;;;-1.80;99.90;;;;;;5097273;28;20232;-73
2023/03/17 04:33:39;;;;;;;115.55;51.47;;;-1.90;99.90;;;;;;5097049;28;20063;-72
2023/03/17 04:36:06;;;;;;;111.32;49.83;;;-2.00;99.90;;;;;;5077329;28;20029;-73
2023/03/17 04:38:32;;;;;;;117.70;55.70;;;-2.00;99.90;;;;;;5077059;28;20038;-73
2023/03/17 04:40:58;;;;;;;113.07;49.22;;;-2.00;99.90;;;;;;5077228;28;20032;-73
2023/03/17 04:43:25;;;;;;;103.70;49.75;;;-2.00;99.90;;;;;;5076877;28;20036;-72
2023/03/17 04:45:51;;;;;;;109.35;50.70;;;-2.10;99.90;;;;;;5076207;28;20481;-72
2023/03/17 04:48:17;;;;;;;134.52;57.70;;;-2.20;99.90;;;;;;5076813;28;20033;-73
2023/03/17 04:50:46;;;;;;;122.22;55.72;;;-2.10;99.90;;;;;;5076741;28;20036;-73
2023/03/17 04:53:12;;;;;;;115.85;52.72;;;-2.10;99.90;;;;;;5076725;28;20509;-72
2023/03/17 04:55:38;;;;;;;108.40;52.65;;;-2.00;99.90;;;;;;5076533;28;20034;-73
2023/03/17 04:58:04;;;;;;;109.53;50.00;;;-2.00;99.90;;;;;;5076757;28;20469;-72
2023/03/17 05:00:32;;;;;;;105.38;47.40;;;-2.10;99.90;;;;;;5076627;28;20108;-73
2023/03/17 05:02:58;;;;;;;100.50;47.17;;;-2.10;99.90;;;;;;5076544;28;20090;-72
2023/03/17 05:05:24;;;;;;;122.80;54.13;;;-2.00;99.90;;;;;;5076568;28;20036;-72
2023/03/17 05:07:50;;;;;;;151.68;61.25;;;-2.10;99.90;;;;;;5076114;28;20132;-72
2023/03/17 05:10:16;;;;;;;138.00;58.88;;;-2.00;99.90;;;;;;5076323;28;20039;-72
2023/03/17 05:12:42;;;;;;;122.53;55.33;;;-2.00;99.90;;;;;;5076555;28;20033;-72
2023/03/17 05:15:08;;;;;;;139.57;57.10;;;-2.10;99.90;;;;;;5076578;28;20035;-72
2023/03/17 05:17:34;;;;;;;122.50;54.25;;;-2.10;99.90;;;;;;5076200;28;20374;-72
2023/03/17 05:20:00;;;;;;;135.32;55.42;;;-1.70;99.90;;;;;;5076159;28;20031;-72
2023/03/17 05:22:26;;;;;;;118.43;53.33;;;-1.40;99.90;;;;;;5076095;28;20033;-72
2023/03/17 05:24:52;;;;;;;123.70;51.22;;;-0.90;99.90;;;;;;5076050;28;20090;-72
2023/03/17 05:27:18;;;;;;;130.00;51.28;;;-0.50;99.90;;;;;;5076144;28;20428;-72
2023/03/17 05:29:44;;;;;;;126.60;50.22;;;-0.10;99.90;;;;;;5075983;28;20034;-72
2023/03/17 05:32:10;;;;;;;118.45;48.60;;;0.00;99.90;;;;;;5075582;28;20401;-72
2023/03/17 05:34:36;;;;;;;113.00;49.75;;;0.20;99.90;;;;;;5083583;28;20068;-72
2023/03/17 05:37:02;;;;;;;108.22;47.03;;;0.10;99.90;;;;;;5096033;28;20066;-72
2023/03/17 05:39:28;;;;;;;112.68;48.22;;;0.10;99.90;;;;;;5096062;28;20028;-72
2023/03/17 05:41:54;;;;;;;116.40;44.70;;;0.10;99.90;;;;;;5096068;28;20549;-71
2023/03/17 05:44:20;;;;;;;107.07;48.05;;;0.20;99.90;;;;;;5096265;28;20039;-71
2023/03/17 05:46:46;;;;;;;114.43;48.60;;;0.20;99.90;;;;;;5095941;28;20024;-71
2023/03/17 05:49:12;;;;;;;113.20;47.80;;;0.40;99.90;;;;;;5096008;28;20031;-71
2023/03/17 05:51:38;;;;;;;123.75;56.90;;;0.40;99.90;;;;;;5095601;28;20028;-71
2023/03/17 05:54:04;;;;;;;157.90;66.07;;;0.50;99.90;;;;;;5095668;28;20035;-71
2023/03/17 05:56:32;;;;;;;131.50;60.20;;;0.40;99.90;;;;;;5095282;28;20454;-71
2023/03/17 05:59:00;;;;;;;125.10;57.63;;;0.60;99.90;;;;;;5095283;28;20121;-71
2023/03/17 06:01:26;;;;;;;125.78;57.35;;;0.60;99.90;;;;;;5095700;28;20032;-71
2023/03/17 06:03:53;;;;;;;118.53;56.03;;;0.70;99.90;;;;;;5095748;28;20447;-72
2023/03/17 06:06:19;;;;;;;112.22;54.80;;;0.60;99.90;;;;;;5095445;28;20302;-72
2023/03/17 06:08:45;;;;;;;123.10;59.05;;;0.70;99.90;;;;;;5095577;28;20031;-71
2023/03/17 06:11:11;;;;;;;114.82;56.08;;;0.80;99.90;;;;;;5095400;28;20058;-71
2023/03/17 06:13:37;;;;;;;118.95;56.00;;;0.90;99.90;;;;;;5095316;28;20026;-71
2023/03/17 06:16:03;;;;;;;132.38;63.85;;;0.90;99.90;;;;;;5095520;28;20024;-71
2023/03/17 06:18:29;;;;;;;126.85;63.38;;;1.20;99.90;;;;;;5094999;28;20099;-71
2023/03/17 06:20:55;;;;;;;146.75;67.13;;;1.50;99.90;;;;;;5095335;28;20111;-71
2023/03/17 06:23:22;;;;;;;132.10;60.22;;;1.70;99.90;;;;;;5095212;28;20059;-71
2023/03/17 06:25:49;;;;;;;125.63;58.85;;;1.90;99.90;;;;;;5094821;28;20036;-71
2023/03/17 06:28:15;;;;;;;136.05;64.57;;;2.40;99.90;;;;;;5069513;28;20024;-71
2023/03/17 06:30:41;;;;;;;158.35;69.60;;;2.40;99.90;;;;;;5074936;28;20027;-71
2023/03/17 06:33:07;;;;;;;147.13;69.10;;;2.60;99.90;;;;;;5073612;28;20509;-71
2023/03/17 06:35:33;;;;;;;138.35;66.78;;;3.20;99.90;;;;;;5089833;28;20060;-71
2023/03/17 06:38:00;;;;;;;147.23;69.35;;;3.50;99.90;;;;;;5093931;28;20032;-71
2023/03/17 06:40:26;;;;;;;145.82;68.40;;;3.80;99.90;;;;;;5066425;28;20038;-71
2023/03/17 06:42:52;;;;;;;137.05;67.10;;;4.10;99.90;;;;;;5059360;28;20053;-71
2023/03/17 06:45:18;;;;;;;125.30;62.95;;;4.20;99.90;;;;;;5065717;28;20108;-71
2023/03/17 06:47:44;;;;;;;151.77;73.47;;;4.20;99.90;;;;;;5074010;28;20052;-71
2023/03/17 06:50:14;;;;;;;149.07;69.03;;;4.50;99.90;;;;;;5070991;28;20532;-71
2023/03/17 06:52:40;;;;;;;142.95;68.78;;;4.80;99.90;;;;;;5073913;28;20466;-71
2023/03/17 06:55:07;;;;;;;150.80;71.72;;;5.20;99.90;;;;;;5073109;28;20085;-71
2023/03/17 06:57:33;;;;;;;162.07;78.03;;;5.40;99.90;;;;;;5092735;28;20027;-71
2023/03/17 06:59:59;;;;;;;158.88;76.70;;;5.60;99.90;;;;;;5073649;28;20424;-71
2023/03/17 07:02:26;;;;;;;134.25;65.60;;;5.90;99.90;;;;;;5074212;28;20024;-71
2023/03/17 07:04:52;;;;;;;156.73;75.78;;;6.40;99.90;;;;;;5074419;28;20036;-71
2023/03/17 07:07:19;;;;;;;137.25;71.72;;;6.70;99.90;;;;;;5064560;28;20518;-71
2023/03/17 07:09:46;;;;;;;136.00;66.15;;;6.30;99.90;;;;;;5070658;28;20085;-73
2023/03/17 07:12:13;;;;;;;138.32;70.22;;;7.00;99.90;;;;;;5074239;28;20033;-76
2023/03/17 07:14:39;;;;;;;139.82;68.53;;;7.10;99.90;;;;;;5085360;28;20396;-75
2023/03/17 07:17:05;;;;;;;142.63;70.90;;;7.20;99.90;;;;;;5089417;28;20020;-77
2023/03/17 07:19:32;;;;;;;131.27;61.13;;;7.80;99.90;;;;;;5074715;28;20021;-75
2023/03/17 07:21:58;;;;;;;124.47;61.25;;;7.40;99.90;;;;;;5073190;28;20029;-76
2023/03/17 07:24:25;;;;;;;121.82;63.13;;;7.80;99.90;;;;;;5063663;28;20033;-75
2023/03/17 07:26:51;;;;;;;130.25;60.42;;;7.90;99.90;;;;;;5063232;28;20065;-75
2023/03/17 07:29:17;;;;;;;122.93;56.38;;;8.20;99.90;;;;;;5054666;28;20025;-76
2023/03/17 07:31:44;;;;;;;128.95;58.40;;;8.70;99.90;;;;;;5054504;28;20067;-76
2023/03/17 07:34:11;;;;;;;99.40;51.90;;;8.80;99.90;;;;;;5069644;28;20052;-76
2023/03/17 07:36:37;;;;;;;102.00;52.08;;;9.20;99.90;;;;;;5074134;28;20052;-75
2023/03/17 07:39:04;;;;;;;109.20;51.67;;;9.30;99.90;;;;;;5069308;28;20377;-76
2023/03/17 07:41:30;;;;;;;91.28;45.90;;;9.60;99.90;;;;;;5074473;28;20556;-76
2023/03/17 07:43:56;;;;;;;90.40;45.40;;;10.00;99.90;;;;;;5072780;28;20040;-76
2023/03/17 07:46:23;;;;;;;76.93;40.30;;;10.30;99.90;;;;;;5092153;28;20036;-76
2023/03/17 07:48:49;;;;;;;82.63;41.08;;;10.30;99.90;;;;;;5094867;28;20504;-76
2023/03/17 07:51:17;;;;;;;66.13;35.15;;;10.60;99.90;;;;;;5094651;28;20035;-76
2023/03/17 07:53:45;;;;;;;72.72;39.45;;;10.80;99.90;;;;;;5094624;28;20036;-76
2023/03/17 07:56:11;;;;;;;64.45;33.17;;;11.00;99.90;;;;;;5094741;28;20462;-76
2023/03/17 07:58:37;;;;;;;59.20;32.78;;;11.30;99.90;;;;;;5090570;28;20054;-76
2023/03/17 08:01:04;;;;;;;92.70;43.28;;;11.40;99.90;;;;;;5069268;28;20441;-76
2023/03/17 08:03:30;;;;;;;81.30;41.70;;;11.50;99.90;;;;;;5065278;28;20143;-76
2023/03/17 08:05:56;;;;;;;71.53;40.33;;;11.50;99.90;;;;;;5074330;28;20082;-76
2023/03/17 08:08:24;;;;;;;66.45;37.50;;;11.50;99.90;;;;;;5056250;28;20043;-77
2023/03/17 08:10:51;;;;;;;64.97;36.75;;;11.80;99.90;;;;;;5074180;28;20042;-77
2023/03/17 08:13:17;;;;;;;73.50;38.58;;;11.70;99.90;;;;;;5072356;28;20374;-77
2023/03/17 08:15:44;;;;;;;70.57;35.90;;;12.20;99.90;;;;;;5074365;28;20021;-77
2023/03/17 08:18:10;;;;;;;61.90;34.50;;;12.30;99.90;;;;;;5073315;28;20093;-77
2023/03/17 08:20:36;;;;;;;56.55;31.50;;;12.40;99.90;;;;;;5073398;28;20032;-76
2023/03/17 08:23:02;;;;;;;63.25;31.80;;;12.80;99.90;;;;;;5077073;28;20025;-76
2023/03/17 08:25:28;;;;;;;61.10;34.00;;;13.00;99.90;;;;;;5071341;28;20543;-77
2023/03/17 08:27:54;;;;;;;54.50;26.77;;;11.90;99.90;;;;;;5063393;28;20121;-76
2023/03/17 08:30:21;;;;;;;52.60;27.40;;;12.50;99.90;;;;;;5095160;28;20154;-76
2023/03/17 08:32:47;;;;;;;42.05;24.70;;;13.00;99.90;;;;;;5071994;28;20104;-77
2023/03/17 08:35:15;;;;;;;50.20;26.58;;;13.30;99.90;;;;;;5076886;28;20448;-76
2023/03/17 08:37:45;;;;;;;50.70;27.52;;;13.60;99.90;;;;;;5072622;28;20033;-76
2023/03/17 08:40:16;;;;;;;57.15;28.02;;;12.90;99.90;;;;;;5066056;28;20033;-76
2023/03/17 08:42:43;;;;;;;49.88;26.52;;;13.60;99.90;;;;;;5078971;28;20030;-77
2023/03/17 08:45:11;;;;;;;57.25;26.60;;;13.10;99.90;;;;;;5067530;28;20036;-76
2023/03/17 08:47:38;;;;;;;46.85;21.58;;;13.60;99.90;;;;;;5094317;28;20035;-77
2023/03/17 08:50:07;;;;;;;25.67;13.38;;;14.00;99.90;;;;;;5097669;28;20028;-76
2023/03/17 08:52:34;;;;;;;22.00;11.80;;;14.60;99.90;;;;;;5097696;28;20081;-76
2023/03/17 08:55:01;;;;;;;24.52;12.57;;;14.60;99.90;;;;;;5097436;28;20016;-77
2023/03/17 08:57:27;;;;;;;11.75;6.25;;;14.50;99.90;;;;;;5097694;28;20473;-76
2023/03/17 08:59:53;;;;;;;21.20;9.90;;;14.60;99.90;;;;;;5097444;28;20124;-76
2023/03/17 09:02:20;;;;;;;16.52;8.73;;;14.60;99.90;;;;;;5097311;28;20031;-76
2023/03/17 09:04:46;;;;;;;16.42;8.77;;;14.80;99.90;;;;;;5097451;28;20089;-76
2023/03/17 09:07:12;;;;;;;14.15;8.10;;;15.10;99.90;;;;;;5097366;28;20059;-77
2023/03/17 09:09:38;;;;;;;18.58;8.45;;;14.80;99.90;;;;;;5097221;28;20099;-77
2023/03/17 09:12:06;;;;;;;18.70;9.52;;;15.30;99.90;;;;;;5097180;28;20038;-77
2023/03/17 09:14:33;;;;;;;24.95;12.40;;;15.30;99.90;;;;;;5097383;28;20055;-76
2023/03/17 09:16:59;;;;;;;28.77;15.43;;;15.00;99.90;;;;;;5095738;28;20109;-77
2023/03/17 09:19:25;;;;;;;26.10;13.30;;;15.00;99.90;;;;;;5096993;28;20020;-77
2023/03/17 09:21:51;;;;;;;21.23;12.23;;;14.90;99.90;;;;;;5097115;28;20081;-77
2023/03/17 09:24:19;;;;;;;24.67;11.65;;;15.10;99.90;;;;;;5096869;28;20115;-77
2023/03/17 09:26:45;;;;;;;35.97;15.05;;;15.50;99.90;;;;;;5096977;28;20039;-78
2023/03/17 09:29:11;;;;;;;25.73;12.98;;;15.90;99.90;;;;;;5097076;28;20086;-59
2023/03/17 09:31:37;;;;;;;20.70;12.27;;;16.00;99.90;;;;;;5096481;28;20052;-59
2023/03/17 09:34:05;;;;;;;30.25;14.90;;;16.40;99.90;;;;;;5093099;28;20094;-59
2023/03/17 09:36:32;;;;;;;31.20;14.43;;;16.50;99.90;;;;;;5076756;28;20024;-59
2023/03/17 09:38:58;;;;;;;28.48;14.25;;;16.70;99.90;;;;;;5076298;28;20024;-59
2023/03/17 09:41:38;;;;;;;31.33;14.63;;;16.20;99.90;;;;;;5090210;28;20035;-59
2023/03/17 09:44:21;;;;;;;23.17;12.77;;;16.20;99.90;;;;;;5096847;28;20076;-59
2023/03/17 09:47:25;;;;;;;27.65;13.63;;;16.50;99.90;;;;;;5096510;28;20055;-59
2023/03/17 09:49:58;;;;;;;27.25;14.02;;;16.60;99.90;;;;;;5087486;28;20473;-59
2023/03/17 09:52:29;;;;;;;25.48;13.35;;;16.40;99.90;;;;;;5067496;28;20456;-59
2023/03/17 09:54:56;;;;;;;23.30;12.88;;;16.00;99.90;;;;;;5069945;28;20366;-59
2023/03/17 09:57:34;;;;;;;31.40;14.55;;;16.20;99.90;;;;;;5096315;28;20032;-59
2023/03/17 10:00:05;;;;;;;22.20;10.85;;;16.70;99.90;;;;;;5096301;28;20020;-59
2023/03/17 10:02:36;;;;;;;20.42;11.43;;;17.20;99.90;;;;;;5081389;28;20074;-59
2023/03/17 10:05:22;;;;;;;32.07;11.83;;;17.10;99.90;;;;;;5073637;28;20100;-59
2023/03/17 10:08:28;;;;;;;29.70;11.25;;;16.60;99.90;;;;;;5072071;28;20032;-59
2023/03/17 10:11:32;;;;;;;24.67;10.93;;;16.80;99.90;;;;;;5068939;28;20040;-59
2023/03/17 10:14:02;;;;;;;25.92;11.10;;;16.40;99.90;;;;;;5073511;28;20031;-59
2023/03/17 10:16:40;;;;;;;22.58;11.68;;;16.40;99.90;;;;;;5075447;28;20032;-59
2023/03/17 10:19:27;;;;;;;30.63;11.13;;;15.20;99.90;;;;;;5074900;28;20070;-59
2023/03/17 10:22:01;;;;;;;16.42;9.02;;;16.00;99.90;;;;;;5075601;28;20061;-59
2023/03/17 10:24:30;;;;;;;21.20;9.80;;;16.20;99.90;;;;;;5075449;28;20377;-59
2023/03/17 10:26:58;;;;;;;16.13;8.85;;;16.50;99.90;;;;;;5075801;28;20028;-59
2023/03/17 10:29:24;;;;;;;26.08;10.30;;;16.20;99.90;;;;;;5075574;28;20051;-59
2023/03/17 10:31:52;;;;;;;26.25;10.15;;;16.30;99.90;;;;;;5075241;28;20067;-59
2023/03/17 10:34:27;;;;;;;37.50;11.52;;;16.60;99.90;;;;;;5068829;28;20126;-59
2023/03/17 10:37:04;;;;;;;17.70;9.00;;;17.10;99.90;;;;;;5079910;28;20381;-59
2023/03/17 10:39:31;;;;;;;16.88;9.02;;;17.30;99.90;;;;;;5087545;28;20543;-59
2023/03/17 10:42:10;;;;;;;20.38;8.82;;;17.30;99.90;;;;;;5070420;28;20538;-59
2023/03/17 10:44:49;;;;;;;17.77;9.82;;;17.20;99.90;;;;;;5064986;28;20043;-59
2023/03/17 10:47:36;;;;;;;16.20;8.73;;;17.20;99.90;;;;;;5075351;28;20031;-59
2023/03/17 10:50:21;;;;;;;14.63;8.98;;;17.40;99.90;;;;;;5074876;28;20024;-59
2023/03/17 10:52:56;;;;;;;16.35;9.07;;;17.60;99.90;;;;;;5072830;28;20021;-58
2023/03/17 10:55:28;;;;;;;17.52;8.57;;;18.00;99.90;;;;;;5055132;28;20435;-61
2023/03/17 10:58:43;;;;;;;17.83;8.82;;;18.30;99.90;;;;;;5055300;28;20131;-58
2023/03/17 11:01:37;;;;;;;20.00;8.70;;;18.20;99.90;;;;;;5049179;28;20546;-59
2023/03/17 11:04:24;;;;;;;18.15;9.13;;;17.40;99.90;;;;;;5074993;28;20067;-59
2023/03/17 11:06:51;;;;;;;16.63;9.10;;;17.50;99.90;;;;;;5054863;28;20029;-58
2023/03/17 11:09:20;;;;;;;16.88;8.48;;;18.10;99.90;;;;;;5066716;28;20028;-58
2023/03/17 11:12:18;;;;;;;15.80;9.20;;;17.60;99.90;;;;;;5068156;28;20108;-59
2023/03/17 11:14:44;;;;;;;21.45;9.15;;;17.90;99.90;;;;;;5055284;28;20033;-59
2023/03/17 11:17:23;;;;;;;14.13;7.93;;;18.50;99.90;;;;;;5060618;28;20028;-59
2023/03/17 11:20:19;;;;;;;21.23;8.83;;;18.10;99.90;;;;;;5073863;28;20067;-59
2023/03/17 11:23:09;;;;;;;15.05;8.43;;;18.10;99.90;;;;;;5073581;28;20029;-59
2023/03/17 11:25:41;;;;;;;16.63;7.88;;;17.90;99.90;;;;;;5040713;28;20047;-59
2023/03/17 11:28:23;;;;;;;15.13;8.50;;;18.00;99.90;;;;;;5071592;28;20089;-59
2023/03/17 11:31:29;;;;;;;24.73;9.90;;;18.60;99.90;;;;;;5064657;28;20032;-59
2023/03/17 11:34:20;;;;;;;14.80;8.05;;;18.50;99.90;;;;;;5072649;28;20096;-59
2023/03/17 11:37:01;;;;;;;14.13;8.00;;;18.60;99.90;;;;;;5051489;28;20120;-59
2023/03/17 11:39:49;;;;;;;16.15;8.25;;;18.20;99.90;;;;;;5050389;28;20017;-58
2023/03/17 11:42:42;;;;;;;14.38;8.20;;;18.30;99.90;;;;;;5052906;28;20029;-59
2023/03/17 11:45:22;;;;;;;13.00;7.80;;;17.40;99.90;;;;;;5051999;28;20025;-59
2023/03/17 11:48:12;;;;;;;13.18;8.05;;;16.70;99.90;;;;;;5053259;28;20021;-59
2023/03/17 11:51:01;;;;;;;17.13;8.82;;;16.40;99.90;;;;;;5046794;28;20021;-59
2023/03/17 11:53:42;;;;;;;39.65;9.95;;;17.30;99.90;;;;;;5059926;28;20027;-59
2023/03/17 11:56:19;;;;;;;17.80;8.68;;;17.60;99.90;;;;;;5061473;28;20050;-59
2023/03/17 11:58:55;;;;;;;17.40;9.13;;;18.10;99.90;;;;;;5077799;28;20043;-59
2023/03/17 12:01:27;;;;;;;17.27;8.63;;;18.00;99.90;;;;;;5077786;28;20029;-59
2023/03/17 12:04:02;;;;;;;26.67;9.43;;;17.50;99.90;;;;;;5073435;28;20044;-59
2023/03/17 12:06:34;;;;;;;22.85;9.43;;;17.80;99.90;;;;;;5057319;28;20114;-59
2023/03/17 12:09:22;;;;;;;13.23;8.18;;;17.70;99.90;;;;;;5057595;28;20037;-59
2023/03/17 12:11:49;;;;;;;19.13;8.63;;;17.30;99.90;;;;;;5056940;28;20165;-59
2023/03/17 12:14:18;;;;;;;17.08;8.02;;;17.10;99.90;;;;;;5057464;28;20029;-59
2023/03/17 12:16:59;;;;;;;21.67;8.48;;;17.40;99.90;;;;;;5057312;28;20494;-59
2023/03/17 12:19:57;;;;;;;15.60;8.27;;;17.20;99.90;;;;;;5057123;28;20040;-59
2023/03/17 12:22:27;;;;;;;19.83;8.35;;;17.00;99.90;;;;;;5003061;28;20053;-59
2023/03/17 12:25:03;;;;;;;13.27;7.40;;;17.60;99.90;;;;;;5057830;28;20044;-59
2023/03/17 12:27:33;;;;;;;12.32;7.35;;;17.40;99.90;;;;;;5057911;28;20776;-59
2023/03/17 12:30:20;;;;;;;16.30;7.97;;;17.50;99.90;;;;;;5058006;28;20040;-59
2023/03/17 12:32:59;;;;;;;32.80;10.07;;;17.90;99.90;;;;;;5057486;28;20032;-59
2023/03/17 12:35:27;;;;;;;17.90;7.82;;;18.00;99.90;;;;;;5083183;28;20040;-58
2023/03/17 12:38:16;;;;;;;20.00;11.15;;;17.80;99.90;;;;;;5097950;28;20028;-59
2023/03/17 12:41:21;;;;;;;15.52;9.15;;;18.20;99.90;;;;;;5082927;28;20115;-59